PWSweather.com
Personal Weather Stations
Station Observations
BLACKWELL
Blackwell, AlfretonGB DE55

BlackwellAlfretonGB DE55

Lat: 53.12076, Lon: -1.354978

Elevation: 410

Station Type: Vantage Pro

High Low Average
Temperature 60.1°F15.6°C 46.6°F8.1°C 50.7°F10.4°C
Dew Point 55.2°F12.9°C 45.1°F7.3°C 48.6°F9.2°C
Winds 2.0 mph 3.2 kmh Calm Calm Calm SECalm SE
Wind Gusts 7.0 mph11.3 kmh -- 3.0 mph4.8 kmh
Humidity 95% 84% 93%
Pressure 29.88 in1011.9 mb 29.63 in1003.4 mb -
Precipitation 0.58 in14.7 mm - -
Hour Temp Dew Point Humidity Winds Wind Gusts Pressure Precip Precip Rate Daily Precip Total
12:12 AM 60.1°F15.6°C 55.2°F12.9°C 84% 1.0 mph S1.6 kmh S 7.0 mph11.3 kmh 29.63 in1003.4 mb 0.00 in0.0 mm 0.00 in0.0 mm 0.00 in0.0 mm
01:12 AM 58.6°F14.8°C 54.9°F12.7°C 87% Calm Calm 5.0 mph8.0 kmh 29.64 in1003.7 mb 0.00 in0.0 mm 0.00 in0.0 mm 0.00 in0.0 mm
02:12 AM 57.7°F14.3°C 54.5°F12.5°C 89% Calm Calm 5.0 mph8.0 kmh 29.65 in1004.1 mb 0.00 in0.0 mm 0.00 in0.0 mm 0.00 in0.0 mm
03:12 AM 57.6°F14.2°C 54.3°F12.4°C 89% Calm Calm 2.0 mph3.2 kmh 29.66 in1004.4 mb 0.00 in0.0 mm 0.00 in0.0 mm 0.00 in0.0 mm
04:12 AM 57.4°F14.1°C 52.5°F11.4°C 84% Calm Calm 4.0 mph6.4 kmh 29.68 in1005.1 mb 0.00 in0.0 mm 0.00 in0.0 mm 0.00 in0.0 mm
05:12 AM 55.2°F12.9°C 51.4°F10.8°C 87% Calm Calm 1.0 mph1.6 kmh 29.69 in1005.4 mb 0.01 in0.3 mm 0.00 in0.0 mm 0.01 in0.3 mm
06:12 AM 53.4°F11.9°C 50.9°F10.5°C 91% Calm Calm -- 29.71 in1006.1 mb 0.02 in0.5 mm 0.00 in0.0 mm 0.02 in0.5 mm
07:12 AM 51.8°F11.0°C 50.0°F10.0°C 93% 1.0 mph NNE1.6 kmh NNE 4.0 mph6.4 kmh 29.70 in1005.8 mb 0.04 in1.0 mm 0.00 in0.0 mm 0.06 in1.5 mm
08:12 AM 51.1°F10.6°C 49.3°F9.6°C 94% Calm Calm 1.0 mph1.6 kmh 29.73 in1006.8 mb 0.04 in1.0 mm 0.00 in0.0 mm 0.10 in2.5 mm
09:12 AM 50.4°F10.2°C 48.7°F9.3°C 94% 1.0 mph N1.6 kmh N 6.0 mph9.7 kmh 29.72 in1006.4 mb 0.12 in3.0 mm 0.00 in0.0 mm 0.22 in5.6 mm
10:12 AM 50.2°F10.1°C 48.7°F9.3°C 95% Calm Calm 2.0 mph3.2 kmh 29.77 in1008.1 mb 0.10 in2.5 mm 0.00 in0.0 mm 0.32 in8.1 mm
11:12 AM 49.5°F9.7°C 48.2°F9.0°C 95% 1.0 mph N1.6 kmh N 4.0 mph6.4 kmh 29.78 in1008.5 mb 0.08 in2.0 mm 0.00 in0.0 mm 0.40 in10.2 mm
12:12 PM 48.4°F9.1°C 46.8°F8.2°C 94% 2.0 mph N3.2 kmh N 7.0 mph11.3 kmh 29.76 in1007.8 mb 0.09 in2.3 mm 0.00 in0.0 mm 0.50 in12.7 mm
01:12 PM 47.5°F8.6°C 46.2°F7.9°C 95% 1.0 mph N1.6 kmh N 5.0 mph8.0 kmh 29.78 in1008.5 mb 0.06 in1.5 mm 0.00 in0.0 mm 0.56 in14.2 mm
02:12 PM 47.5°F8.6°C 46.2°F7.9°C 95% Calm Calm 6.0 mph9.7 kmh 29.77 in1008.1 mb 0.02 in0.5 mm 0.00 in0.0 mm 0.57 in14.5 mm
03:12 PM 47.5°F8.6°C 46.0°F7.8°C 95% 1.0 mph N1.6 kmh N 4.0 mph6.4 kmh 29.78 in1008.5 mb 0.01 in0.3 mm 0.00 in0.0 mm 0.58 in14.7 mm
04:12 PM 46.9°F8.3°C 45.7°F7.6°C 95% Calm Calm 1.0 mph1.6 kmh 29.80 in1009.1 mb 0.00 in0.0 mm 0.00 in0.0 mm 0.58 in14.7 mm
05:12 PM 46.9°F8.3°C 45.7°F7.6°C 95% Calm Calm -- 29.83 in1010.2 mb 0.00 in0.0 mm 0.00 in0.0 mm 0.58 in14.7 mm
06:12 PM 46.8°F8.2°C 45.5°F7.5°C 95% Calm Calm 1.0 mph1.6 kmh 29.85 in1010.8 mb 0.00 in0.0 mm 0.00 in0.0 mm 0.58 in14.7 mm
07:12 PM 46.6°F8.1°C 45.3°F7.4°C 95% Calm Calm 4.0 mph6.4 kmh 29.86 in1011.2 mb 0.00 in0.0 mm 0.00 in0.0 mm 0.58 in14.7 mm
08:12 PM 46.6°F8.1°C 45.1°F7.3°C 95% Calm Calm 4.0 mph6.4 kmh 29.86 in1011.2 mb 0.00 in0.0 mm 0.00 in0.0 mm 0.58 in14.7 mm
09:12 PM 46.6°F8.1°C 45.1°F7.3°C 95% Calm Calm 3.0 mph4.8 kmh 29.88 in1011.9 mb 0.00 in0.0 mm 0.00 in0.0 mm 0.58 in14.7 mm
10:12 PM 46.6°F8.1°C 45.3°F7.4°C 95% 1.0 mph N1.6 kmh N 3.0 mph4.8 kmh 29.87 in1011.5 mb 0.00 in0.0 mm 0.00 in0.0 mm 0.58 in14.7 mm
11:12 PM 46.6°F8.1°C 45.3°F7.4°C 95% Calm Calm 1.0 mph1.6 kmh 29.87 in1011.5 mb 0.00 in0.0 mm 0.00 in0.0 mm 0.13 in3.3 mm